sensor_id;sensor_type;location;lat;lon;timestamp;P1;durP1;ratioP1;P2;durP2;ratioP2
61590;SDS011;57639;52.410;-1.966;2023-04-25T00:01:45;2.72;;;1.20;;
61590;SDS011;57639;52.410;-1.966;2023-04-25T00:04:51;2.47;;;1.38;;
61590;SDS011;57639;52.410;-1.966;2023-04-25T00:08:03;3.20;;;1.35;;
61590;SDS011;57639;52.410;-1.966;2023-04-25T00:11:10;2.47;;;1.50;;
61590;SDS011;57639;52.410;-1.966;2023-04-25T00:14:16;2.47;;;1.30;;
61590;SDS011;57639;52.410;-1.966;2023-04-25T00:17:22;2.80;;;1.23;;
61590;SDS011;57639;52.410;-1.966;2023-04-25T00:20:29;2.58;;;1.50;;
61590;SDS011;57639;52.410;-1.966;2023-04-25T00:23:38;3.58;;;1.58;;
61590;SDS011;57639;52.410;-1.966;2023-04-25T00:26:44;1.98;;;1.08;;
61590;SDS011;57639;52.410;-1.966;2023-04-25T00:29:53;4.03;;;1.45;;
61590;SDS011;57639;52.410;-1.966;2023-04-25T00:33:00;2.63;;;1.27;;
61590;SDS011;57639;52.410;-1.966;2023-04-25T00:36:06;2.85;;;1.55;;
61590;SDS011;57639;52.410;-1.966;2023-04-25T00:39:16;3.63;;;1.48;;
61590;SDS011;57639;52.410;-1.966;2023-04-25T00:42:22;2.83;;;1.23;;
61590;SDS011;57639;52.410;-1.966;2023-04-25T00:45:29;2.22;;;1.20;;
61590;SDS011;57639;52.410;-1.966;2023-04-25T00:48:36;2.97;;;1.35;;
61590;SDS011;57639;52.410;-1.966;2023-04-25T00:51:42;3.20;;;1.30;;
61590;SDS011;57639;52.410;-1.966;2023-04-25T00:54:52;2.17;;;1.20;;
61590;SDS011;57639;52.410;-1.966;2023-04-25T00:57:58;2.50;;;1.27;;
61590;SDS011;57639;52.410;-1.966;2023-04-25T01:01:05;2.20;;;1.20;;
61590;SDS011;57639;52.410;-1.966;2023-04-25T01:04:12;3.08;;;1.33;;
61590;SDS011;57639;52.410;-1.966;2023-04-25T01:07:19;3.00;;;1.45;;
61590;SDS011;57639;52.410;-1.966;2023-04-25T01:10:28;3.78;;;1.30;;
61590;SDS011;57639;52.410;-1.966;2023-04-25T01:13:34;3.45;;;1.50;;
61590;SDS011;57639;52.410;-1.966;2023-04-25T01:16:41;3.13;;;1.27;;
61590;SDS011;57639;52.410;-1.966;2023-04-25T01:19:48;2.13;;;1.20;;
61590;SDS011;57639;52.410;-1.966;2023-04-25T01:22:57;4.18;;;1.30;;
61590;SDS011;57639;52.410;-1.966;2023-04-25T01:26:04;3.17;;;1.45;;
61590;SDS011;57639;52.410;-1.966;2023-04-25T01:29:11;3.65;;;1.20;;
61590;SDS011;57639;52.410;-1.966;2023-04-25T01:32:18;2.13;;;1.23;;
61590;SDS011;57639;52.410;-1.966;2023-04-25T01:35:24;3.22;;;1.33;;
61590;SDS011;57639;52.410;-1.966;2023-04-25T01:38:34;2.92;;;1.40;;
61590;SDS011;57639;52.410;-1.966;2023-04-25T01:41:41;2.38;;;1.40;;
61590;SDS011;57639;52.410;-1.966;2023-04-25T01:44:47;2.25;;;1.38;;
61590;SDS011;57639;52.410;-1.966;2023-04-25T01:47:53;1.88;;;1.20;;
61590;SDS011;57639;52.410;-1.966;2023-04-25T01:51:01;2.80;;;1.10;;
61590;SDS011;57639;52.410;-1.966;2023-04-25T01:54:11;3.65;;;1.60;;
61590;SDS011;57639;52.410;-1.966;2023-04-25T01:57:18;2.67;;;1.40;;
61590;SDS011;57639;52.410;-1.966;2023-04-25T02:00:25;4.07;;;1.42;;
61590;SDS011;57639;52.410;-1.966;2023-04-25T02:03:31;3.45;;;1.50;;
61590;SDS011;57639;52.410;-1.966;2023-04-25T02:06:38;2.60;;;1.30;;
61590;SDS011;57639;52.410;-1.966;2023-04-25T02:09:47;2.33;;;1.30;;
61590;SDS011;57639;52.410;-1.966;2023-04-25T02:12:53;2.58;;;1.35;;
61590;SDS011;57639;52.410;-1.966;2023-04-25T02:16:00;3.70;;;1.33;;
61590;SDS011;57639;52.410;-1.966;2023-04-25T02:19:06;3.20;;;1.48;;
61590;SDS011;57639;52.410;-1.966;2023-04-25T02:22:12;3.28;;;1.42;;
61590;SDS011;57639;52.410;-1.966;2023-04-25T02:25:22;3.10;;;1.30;;
61590;SDS011;57639;52.410;-1.966;2023-04-25T02:28:28;2.33;;;1.40;;
61590;SDS011;57639;52.410;-1.966;2023-04-25T02:31:35;2.58;;;1.30;;
61590;SDS011;57639;52.410;-1.966;2023-04-25T02:34:41;4.60;;;1.25;;
61590;SDS011;57639;52.410;-1.966;2023-04-25T02:37:47;2.88;;;1.38;;
61590;SDS011;57639;52.410;-1.966;2023-04-25T02:40:56;3.38;;;1.40;;
61590;SDS011;57639;52.410;-1.966;2023-04-25T02:44:02;3.10;;;1.35;;
61590;SDS011;57639;52.410;-1.966;2023-04-25T02:47:09;2.58;;;1.40;;
61590;SDS011;57639;52.410;-1.966;2023-04-25T02:50:15;2.22;;;1.20;;
61590;SDS011;57639;52.410;-1.966;2023-04-25T02:53:21;2.65;;;1.38;;
61590;SDS011;57639;52.410;-1.966;2023-04-25T02:56:30;3.35;;;1.30;;
61590;SDS011;57639;52.410;-1.966;2023-04-25T02:59:36;2.05;;;1.20;;
61590;SDS011;57639;52.410;-1.966;2023-04-25T03:02:43;2.53;;;1.20;;
61590;SDS011;57639;52.410;-1.966;2023-04-25T03:05:49;2.75;;;1.40;;
61590;SDS011;57639;52.410;-1.966;2023-04-25T03:08:55;2.65;;;1.20;;
61590;SDS011;57639;52.410;-1.966;2023-04-25T03:12:05;3.10;;;1.35;;
61590;SDS011;57639;52.410;-1.966;2023-04-25T03:18:31;3.28;;;1.23;;
61590;SDS011;57639;52.410;-1.966;2023-04-25T03:21:54;2.70;;;1.13;;
61590;SDS011;57639;52.410;-1.966;2023-04-25T03:25:16;2.53;;;1.10;;
61590;SDS011;57639;52.410;-1.966;2023-04-25T03:28:42;2.00;;;1.27;;
61590;SDS011;57639;52.410;-1.966;2023-04-25T03:32:05;3.15;;;1.33;;
61590;SDS011;57639;52.410;-1.966;2023-04-25T03:35:28;2.30;;;1.20;;
61590;SDS011;57639;52.410;-1.966;2023-04-25T03:38:50;2.30;;;1.33;;
61590;SDS011;57639;52.410;-1.966;2023-04-25T03:42:13;2.95;;;1.25;;
61590;SDS011;57639;52.410;-1.966;2023-04-25T03:45:38;2.55;;;1.23;;
61590;SDS011;57639;52.410;-1.966;2023-04-25T03:49:01;1.83;;;1.20;;
61590;SDS011;57639;52.410;-1.966;2023-04-25T03:52:23;2.55;;;1.25;;
61590;SDS011;57639;52.410;-1.966;2023-04-25T03:55:46;2.50;;;1.23;;
61590;SDS011;57639;52.410;-1.966;2023-04-25T03:59:09;2.55;;;1.48;;
61590;SDS011;57639;52.410;-1.966;2023-04-25T04:02:34;3.15;;;1.13;;
61590;SDS011;57639;52.410;-1.966;2023-04-25T04:05:57;2.42;;;1.08;;
61590;SDS011;57639;52.410;-1.966;2023-04-25T04:09:20;3.00;;;1.15;;
61590;SDS011;57639;52.410;-1.966;2023-04-25T04:12:42;2.17;;;1.15;;
61590;SDS011;57639;52.410;-1.966;2023-04-25T04:16:06;2.75;;;1.25;;
61590;SDS011;57639;52.410;-1.966;2023-04-25T04:19:31;1.60;;;0.95;;
61590;SDS011;57639;52.410;-1.966;2023-04-25T04:22:54;1.90;;;1.10;;
61590;SDS011;57639;52.410;-1.966;2023-04-25T04:26:16;2.63;;;1.10;;
61590;SDS011;57639;52.410;-1.966;2023-04-25T04:29:42;2.13;;;1.08;;
61590;SDS011;57639;52.410;-1.966;2023-04-25T04:33:05;3.38;;;1.38;;
61590;SDS011;57639;52.410;-1.966;2023-04-25T04:36:31;2.70;;;1.20;;
61590;SDS011;57639;52.410;-1.966;2023-04-25T04:39:54;3.17;;;1.23;;
61590;SDS011;57639;52.410;-1.966;2023-04-25T04:43:17;2.20;;;1.30;;
61590;SDS011;57639;52.410;-1.966;2023-04-25T04:46:41;2.65;;;1.20;;
61590;SDS011;57639;52.410;-1.966;2023-04-25T04:50:05;2.42;;;1.15;;
61590;SDS011;57639;52.410;-1.966;2023-04-25T04:53:31;1.75;;;1.10;;
61590;SDS011;57639;52.410;-1.966;2023-04-25T04:56:53;2.15;;;1.00;;
61590;SDS011;57639;52.410;-1.966;2023-04-25T05:00:17;3.80;;;1.05;;
61590;SDS011;57639;52.410;-1.966;2023-04-25T05:03:40;3.15;;;1.33;;
61590;SDS011;57639;52.410;-1.966;2023-04-25T05:07:03;3.35;;;1.10;;
61590;SDS011;57639;52.410;-1.966;2023-04-25T05:10:28;2.45;;;1.00;;
61590;SDS011;57639;52.410;-1.966;2023-04-25T05:13:51;2.22;;;1.15;;
61590;SDS011;57639;52.410;-1.966;2023-04-25T05:17:14;2.30;;;1.20;;
61590;SDS011;57639;52.410;-1.966;2023-04-25T05:20:37;2.13;;;1.08;;
61590;SDS011;57639;52.410;-1.966;2023-04-25T05:24:00;2.30;;;1.00;;
61590;SDS011;57639;52.410;-1.966;2023-04-25T05:27:25;3.17;;;1.20;;
61590;SDS011;57639;52.410;-1.966;2023-04-25T05:30:48;2.58;;;1.08;;
61590;SDS011;57639;52.410;-1.966;2023-04-25T05:34:11;2.40;;;1.17;;
61590;SDS011;57639;52.410;-1.966;2023-04-25T05:37:35;4.53;;;1.27;;
61590;SDS011;57639;52.410;-1.966;2023-04-25T05:40:57;3.22;;;1.45;;
61590;SDS011;57639;52.410;-1.966;2023-04-25T05:44:23;3.10;;;1.27;;
61590;SDS011;57639;52.410;-1.966;2023-04-25T05:47:46;3.33;;;1.38;;
61590;SDS011;57639;52.410;-1.966;2023-04-25T05:51:08;2.20;;;1.20;;
61590;SDS011;57639;52.410;-1.966;2023-04-25T05:54:31;2.88;;;1.30;;
61590;SDS011;57639;52.410;-1.966;2023-04-25T05:57:53;3.88;;;1.20;;
61590;SDS011;57639;52.410;-1.966;2023-04-25T06:01:19;1.95;;;1.13;;
61590;SDS011;57639;52.410;-1.966;2023-04-25T06:04:41;3.50;;;1.27;;
61590;SDS011;57639;52.410;-1.966;2023-04-25T06:08:04;2.55;;;1.45;;
61590;SDS011;57639;52.410;-1.966;2023-04-25T06:11:26;2.63;;;1.45;;
61590;SDS011;57639;52.410;-1.966;2023-04-25T06:14:49;2.58;;;1.42;;
61590;SDS011;57639;52.410;-1.966;2023-04-25T06:18:15;2.92;;;1.38;;
61590;SDS011;57639;52.410;-1.966;2023-04-25T06:21:38;4.30;;;1.40;;
61590;SDS011;57639;52.410;-1.966;2023-04-25T06:25:01;2.33;;;1.20;;
61590;SDS011;57639;52.410;-1.966;2023-04-25T06:28:23;2.55;;;1.38;;
61590;SDS011;57639;52.410;-1.966;2023-04-25T06:31:46;3.17;;;1.30;;
61590;SDS011;57639;52.410;-1.966;2023-04-25T06:35:12;3.58;;;1.20;;
61590;SDS011;57639;52.410;-1.966;2023-04-25T06:38:34;6.93;;;1.45;;
61590;SDS011;57639;52.410;-1.966;2023-04-25T06:41:57;3.08;;;1.20;;
61590;SDS011;57639;52.410;-1.966;2023-04-25T06:45:20;2.33;;;1.13;;
61590;SDS011;57639;52.410;-1.966;2023-04-25T06:48:42;2.72;;;1.05;;
61590;SDS011;57639;52.410;-1.966;2023-04-25T06:52:08;4.43;;;1.30;;
61590;SDS011;57639;52.410;-1.966;2023-04-25T06:55:30;3.40;;;1.20;;
61590;SDS011;57639;52.410;-1.966;2023-04-25T06:58:53;2.75;;;1.10;;
61590;SDS011;57639;52.410;-1.966;2023-04-25T07:02:16;3.67;;;1.40;;
61590;SDS011;57639;52.410;-1.966;2023-04-25T07:05:40;3.13;;;1.10;;
61590;SDS011;57639;52.410;-1.966;2023-04-25T07:09:07;3.05;;;0.93;;
61590;SDS011;57639;52.410;-1.966;2023-04-25T07:12:31;3.78;;;1.25;;
61590;SDS011;57639;52.410;-1.966;2023-04-25T07:15:53;2.17;;;1.00;;
61590;SDS011;57639;52.410;-1.966;2023-04-25T07:19:16;1.88;;;1.02;;
61590;SDS011;57639;52.410;-1.966;2023-04-25T07:22:39;2.10;;;1.00;;
61590;SDS011;57639;52.410;-1.966;2023-04-25T07:26:04;3.67;;;1.15;;
61590;SDS011;57639;52.410;-1.966;2023-04-25T07:29:27;2.95;;;1.00;;
61590;SDS011;57639;52.410;-1.966;2023-04-25T07:32:50;2.17;;;1.08;;
61590;SDS011;57639;52.410;-1.966;2023-04-25T07:36:13;3.13;;;1.00;;
61590;SDS011;57639;52.410;-1.966;2023-04-25T07:39:35;3.25;;;0.95;;
61590;SDS011;57639;52.410;-1.966;2023-04-25T07:43:01;1.85;;;0.75;;
61590;SDS011;57639;52.410;-1.966;2023-04-25T07:46:24;3.03;;;1.00;;
61590;SDS011;57639;52.410;-1.966;2023-04-25T07:49:47;1.70;;;0.90;;
61590;SDS011;57639;52.410;-1.966;2023-04-25T07:53:09;2.15;;;1.08;;
61590;SDS011;57639;52.410;-1.966;2023-04-25T07:56:32;2.92;;;1.00;;
61590;SDS011;57639;52.410;-1.966;2023-04-25T07:59:58;2.80;;;0.90;;
61590;SDS011;57639;52.410;-1.966;2023-04-25T08:03:21;2.33;;;0.80;;
61590;SDS011;57639;52.410;-1.966;2023-04-25T08:06:44;2.22;;;0.70;;
61590;SDS011;57639;52.410;-1.966;2023-04-25T08:10:07;2.05;;;0.80;;
61590;SDS011;57639;52.410;-1.966;2023-04-25T08:13:31;1.77;;;0.90;;
61590;SDS011;57639;52.410;-1.966;2023-04-25T08:16:56;3.38;;;1.05;;
61590;SDS011;57639;52.410;-1.966;2023-04-25T08:20:19;2.00;;;0.70;;
61590;SDS011;57639;52.410;-1.966;2023-04-25T08:23:41;2.20;;;0.90;;
61590;SDS011;57639;52.410;-1.966;2023-04-25T08:27:04;1.92;;;0.93;;
61590;SDS011;57639;52.410;-1.966;2023-04-25T08:30:27;2.60;;;1.23;;
61590;SDS011;57639;52.410;-1.966;2023-04-25T08:33:52;2.08;;;0.90;;
61590;SDS011;57639;52.410;-1.966;2023-04-25T08:37:15;2.05;;;0.80;;
61590;SDS011;57639;52.410;-1.966;2023-04-25T08:40:38;3.33;;;1.17;;
61590;SDS011;57639;52.410;-1.966;2023-04-25T08:44:01;2.97;;;0.90;;
61590;SDS011;57639;52.410;-1.966;2023-04-25T08:47:25;2.35;;;0.80;;
61590;SDS011;57639;52.410;-1.966;2023-04-25T08:50:55;1.63;;;0.68;;
61590;SDS011;57639;52.410;-1.966;2023-04-25T08:54:18;1.70;;;0.73;;
61590;SDS011;57639;52.410;-1.966;2023-04-25T08:57:44;2.20;;;0.80;;
61590;SDS011;57639;52.410;-1.966;2023-04-25T09:01:08;2.30;;;1.00;;
61590;SDS011;57639;52.410;-1.966;2023-04-25T09:04:33;1.67;;;0.77;;
61590;SDS011;57639;52.410;-1.966;2023-04-25T09:07:58;1.80;;;0.77;;
61590;SDS011;57639;52.410;-1.966;2023-04-25T09:11:24;2.40;;;0.95;;
61590;SDS011;57639;52.410;-1.966;2023-04-25T09:14:35;2.25;;;0.90;;
61590;SDS011;57639;52.410;-1.966;2023-04-25T09:17:43;2.17;;;0.90;;
61590;SDS011;57639;52.410;-1.966;2023-04-25T09:20:49;2.38;;;0.82;;
61590;SDS011;57639;52.410;-1.966;2023-04-25T09:24:01;2.85;;;0.80;;
61590;SDS011;57639;52.410;-1.966;2023-04-25T09:27:08;1.47;;;0.80;;
61590;SDS011;57639;52.410;-1.966;2023-04-25T09:30:16;2.28;;;0.80;;
61590;SDS011;57639;52.410;-1.966;2023-04-25T09:33:26;2.10;;;0.90;;
61590;SDS011;57639;52.410;-1.966;2023-04-25T09:36:38;1.63;;;0.77;;
61590;SDS011;57639;52.410;-1.966;2023-04-25T09:39:48;3.20;;;0.85;;
61590;SDS011;57639;52.410;-1.966;2023-04-25T09:46:01;2.60;;;0.90;;
61590;SDS011;57639;52.410;-1.966;2023-04-25T09:49:09;1.45;;;0.73;;
61590;SDS011;57639;52.410;-1.966;2023-04-25T09:52:16;1.30;;;0.70;;
61590;SDS011;57639;52.410;-1.966;2023-04-25T09:55:27;1.80;;;0.82;;
61590;SDS011;57639;52.410;-1.966;2023-04-25T09:58:33;1.43;;;0.70;;
61590;SDS011;57639;52.410;-1.966;2023-04-25T10:01:40;1.77;;;0.82;;
61590;SDS011;57639;52.410;-1.966;2023-04-25T10:04:51;1.52;;;0.80;;
61590;SDS011;57639;52.410;-1.966;2023-04-25T10:07:58;1.80;;;0.80;;
61590;SDS011;57639;52.410;-1.966;2023-04-25T10:11:11;1.25;;;0.80;;
61590;SDS011;57639;52.410;-1.966;2023-04-25T10:14:18;1.85;;;0.82;;
61590;SDS011;57639;52.410;-1.966;2023-04-25T10:17:26;1.73;;;0.77;;
61590;SDS011;57639;52.410;-1.966;2023-04-25T10:20:33;1.60;;;0.80;;
61590;SDS011;57639;52.410;-1.966;2023-04-25T10:23:42;1.67;;;0.70;;
61590;SDS011;57639;52.410;-1.966;2023-04-25T10:26:52;2.05;;;0.73;;
61590;SDS011;57639;52.410;-1.966;2023-04-25T10:30:02;2.00;;;0.83;;
61590;SDS011;57639;52.410;-1.966;2023-04-25T10:33:16;2.30;;;0.70;;
61590;SDS011;57639;52.410;-1.966;2023-04-25T10:36:24;1.90;;;0.88;;
61590;SDS011;57639;52.410;-1.966;2023-04-25T10:39:31;2.03;;;0.90;;
61590;SDS011;57639;52.410;-1.966;2023-04-25T10:42:43;1.98;;;0.85;;
61590;SDS011;57639;52.410;-1.966;2023-04-25T10:45:50;1.92;;;0.90;;
61590;SDS011;57639;52.410;-1.966;2023-04-25T10:48:58;2.67;;;0.80;;
61590;SDS011;57639;52.410;-1.966;2023-04-25T10:59:10;2.10;;;0.85;;
61590;SDS011;57639;52.410;-1.966;2023-04-25T11:02:18;1.50;;;0.75;;
61590;SDS011;57639;52.410;-1.966;2023-04-25T11:05:27;1.30;;;0.60;;
61590;SDS011;57639;52.410;-1.966;2023-04-25T11:08:40;2.67;;;0.80;;
61590;SDS011;57639;52.410;-1.966;2023-04-25T11:11:53;2.25;;;0.90;;
61590;SDS011;57639;52.410;-1.966;2023-04-25T11:15:05;3.17;;;0.77;;
61590;SDS011;57639;52.410;-1.966;2023-04-25T11:18:15;2.03;;;0.90;;
61590;SDS011;57639;52.410;-1.966;2023-04-25T11:21:23;1.30;;;0.77;;
61590;SDS011;57639;52.410;-1.966;2023-04-25T11:24:31;1.38;;;0.70;;
61590;SDS011;57639;52.410;-1.966;2023-04-25T11:27:39;1.52;;;0.63;;
61590;SDS011;57639;52.410;-1.966;2023-04-25T11:30:58;1.63;;;0.88;;
61590;SDS011;57639;52.410;-1.966;2023-04-25T11:34:04;1.50;;;0.80;;
61590;SDS011;57639;52.410;-1.966;2023-04-25T11:37:10;2.45;;;0.93;;
61590;SDS011;57639;52.410;-1.966;2023-04-25T11:40:17;2.05;;;0.75;;
61590;SDS011;57639;52.410;-1.966;2023-04-25T11:43:25;1.67;;;0.70;;
61590;SDS011;57639;52.410;-1.966;2023-04-25T11:46:36;1.85;;;0.80;;
61590;SDS011;57639;52.410;-1.966;2023-04-25T11:49:42;1.00;;;0.70;;
61590;SDS011;57639;52.410;-1.966;2023-04-25T11:52:49;3.25;;;1.17;;
61590;SDS011;57639;52.410;-1.966;2023-04-25T11:55:56;1.58;;;0.70;;
61590;SDS011;57639;52.410;-1.966;2023-04-25T11:59:02;2.10;;;0.80;;
61590;SDS011;57639;52.410;-1.966;2023-04-25T12:02:23;1.35;;;0.80;;
61590;SDS011;57639;52.410;-1.966;2023-04-25T12:05:30;2.63;;;0.80;;
61590;SDS011;57639;52.410;-1.966;2023-04-25T12:08:38;1.27;;;0.80;;
61590;SDS011;57639;52.410;-1.966;2023-04-25T12:11:44;1.42;;;0.70;;
61590;SDS011;57639;52.410;-1.966;2023-04-25T12:14:52;1.40;;;0.90;;
61590;SDS011;57639;52.410;-1.966;2023-04-25T12:18:01;1.45;;;0.80;;
61590;SDS011;57639;52.410;-1.966;2023-04-25T12:24:15;1.30;;;0.70;;
61590;SDS011;57639;52.410;-1.966;2023-04-25T12:27:25;1.27;;;0.70;;
61590;SDS011;57639;52.410;-1.966;2023-04-25T12:30:38;1.35;;;0.85;;
61590;SDS011;57639;52.410;-1.966;2023-04-25T12:34:01;1.20;;;0.90;;
61590;SDS011;57639;52.410;-1.966;2023-04-25T12:37:07;1.53;;;0.90;;
61590;SDS011;57639;52.410;-1.966;2023-04-25T12:40:14;1.88;;;0.93;;
61590;SDS011;57639;52.410;-1.966;2023-04-25T12:43:21;1.98;;;0.75;;
61590;SDS011;57639;52.410;-1.966;2023-04-25T12:46:27;2.35;;;0.80;;
61590;SDS011;57639;52.410;-1.966;2023-04-25T12:49:36;1.55;;;0.82;;
61590;SDS011;57639;52.410;-1.966;2023-04-25T12:52:43;1.42;;;0.80;;
61590;SDS011;57639;52.410;-1.966;2023-04-25T12:55:49;2.20;;;1.10;;
61590;SDS011;57639;52.410;-1.966;2023-04-25T12:58:55;1.65;;;0.90;;
61590;SDS011;57639;52.410;-1.966;2023-04-25T13:02:02;1.75;;;0.73;;
61590;SDS011;57639;52.410;-1.966;2023-04-25T13:05:11;1.48;;;0.82;;
61590;SDS011;57639;52.410;-1.966;2023-04-25T13:08:18;1.70;;;0.90;;
61590;SDS011;57639;52.410;-1.966;2023-04-25T13:11:24;1.90;;;1.00;;
61590;SDS011;57639;52.410;-1.966;2023-04-25T13:14:30;1.33;;;0.90;;
61590;SDS011;57639;52.410;-1.966;2023-04-25T13:17:37;2.13;;;0.90;;
61590;SDS011;57639;52.410;-1.966;2023-04-25T13:20:46;0.93;;;0.70;;
61590;SDS011;57639;52.410;-1.966;2023-04-25T13:23:55;1.30;;;0.90;;
61590;SDS011;57639;52.410;-1.966;2023-04-25T13:27:01;1.40;;;0.90;;
61590;SDS011;57639;52.410;-1.966;2023-04-25T13:30:11;1.73;;;0.82;;
61590;SDS011;57639;52.410;-1.966;2023-04-25T13:33:17;1.60;;;0.80;;
61590;SDS011;57639;52.410;-1.966;2023-04-25T13:36:27;1.67;;;1.00;;
61590;SDS011;57639;52.410;-1.966;2023-04-25T13:39:34;2.03;;;1.15;;
61590;SDS011;57639;52.410;-1.966;2023-04-25T13:42:42;2.13;;;1.10;;
61590;SDS011;57639;52.410;-1.966;2023-04-25T13:45:49;1.50;;;1.00;;
61590;SDS011;57639;52.410;-1.966;2023-04-25T13:49:01;1.55;;;0.90;;
61590;SDS011;57639;52.410;-1.966;2023-04-25T13:52:10;2.28;;;1.20;;
61590;SDS011;57639;52.410;-1.966;2023-04-25T13:55:18;1.83;;;0.90;;
61590;SDS011;57639;52.410;-1.966;2023-04-25T13:58:24;2.08;;;1.13;;
61590;SDS011;57639;52.410;-1.966;2023-04-25T14:01:31;2.45;;;1.10;;
61590;SDS011;57639;52.410;-1.966;2023-04-25T14:04:39;2.75;;;1.20;;
61590;SDS011;57639;52.410;-1.966;2023-04-25T14:07:48;2.28;;;1.10;;
61590;SDS011;57639;52.410;-1.966;2023-04-25T14:10:57;1.42;;;1.00;;
61590;SDS011;57639;52.410;-1.966;2023-04-25T14:14:03;2.42;;;1.02;;
61590;SDS011;57639;52.410;-1.966;2023-04-25T14:17:09;2.10;;;1.20;;
61590;SDS011;57639;52.410;-1.966;2023-04-25T14:20:16;1.98;;;0.95;;
61590;SDS011;57639;52.410;-1.966;2023-04-25T14:23:26;1.95;;;1.10;;
61590;SDS011;57639;52.410;-1.966;2023-04-25T14:26:33;1.83;;;1.10;;
61590;SDS011;57639;52.410;-1.966;2023-04-25T14:29:39;1.75;;;1.10;;
61590;SDS011;57639;52.410;-1.966;2023-04-25T14:32:49;2.03;;;1.20;;
61590;SDS011;57639;52.410;-1.966;2023-04-25T14:35:55;1.90;;;1.20;;
61590;SDS011;57639;52.410;-1.966;2023-04-25T14:39:06;1.55;;;1.13;;
61590;SDS011;57639;52.410;-1.966;2023-04-25T14:42:13;2.27;;;1.10;;
61590;SDS011;57639;52.410;-1.966;2023-04-25T14:45:19;2.08;;;1.10;;
61590;SDS011;57639;52.410;-1.966;2023-04-25T14:48:27;1.85;;;1.10;;
61590;SDS011;57639;52.410;-1.966;2023-04-25T14:51:34;1.80;;;1.30;;
61590;SDS011;57639;52.410;-1.966;2023-04-25T14:54:43;3.67;;;1.38;;
61590;SDS011;57639;52.410;-1.966;2023-04-25T14:57:49;2.40;;;1.17;;
61590;SDS011;57639;52.410;-1.966;2023-04-25T15:00:58;1.92;;;1.13;;
61590;SDS011;57639;52.410;-1.966;2023-04-25T15:04:07;2.87;;;1.37;;
61590;SDS011;57639;52.410;-1.966;2023-04-25T15:07:14;2.05;;;1.30;;
61590;SDS011;57639;52.410;-1.966;2023-04-25T15:10:24;2.15;;;1.10;;
61590;SDS011;57639;52.410;-1.966;2023-04-25T15:13:30;2.20;;;1.20;;
61590;SDS011;57639;52.410;-1.966;2023-04-25T15:16:37;2.30;;;1.13;;
61590;SDS011;57639;52.410;-1.966;2023-04-25T15:19:43;2.35;;;1.17;;
61590;SDS011;57639;52.410;-1.966;2023-04-25T15:22:49;2.80;;;1.30;;
61590;SDS011;57639;52.410;-1.966;2023-04-25T15:25:59;3.15;;;1.10;;
61590;SDS011;57639;52.410;-1.966;2023-04-25T15:29:09;2.00;;;1.27;;
61590;SDS011;57639;52.410;-1.966;2023-04-25T15:32:18;2.17;;;1.42;;
61590;SDS011;57639;52.410;-1.966;2023-04-25T15:35:25;2.50;;;1.42;;
61590;SDS011;57639;52.410;-1.966;2023-04-25T15:38:32;2.88;;;1.30;;
61590;SDS011;57639;52.410;-1.966;2023-04-25T15:41:44;1.60;;;1.27;;
61590;SDS011;57639;52.410;-1.966;2023-04-25T15:44:50;2.13;;;1.20;;
61590;SDS011;57639;52.410;-1.966;2023-04-25T15:47:56;2.65;;;1.25;;
61590;SDS011;57639;52.410;-1.966;2023-04-25T15:51:03;2.55;;;1.20;;
61590;SDS011;57639;52.410;-1.966;2023-04-25T15:54:09;2.28;;;1.23;;
61590;SDS011;57639;52.410;-1.966;2023-04-25T15:57:22;2.63;;;1.40;;
61590;SDS011;57639;52.410;-1.966;2023-04-25T16:00:30;2.28;;;1.40;;
61590;SDS011;57639;52.410;-1.966;2023-04-25T16:03:37;3.63;;;1.50;;
61590;SDS011;57639;52.410;-1.966;2023-04-25T16:06:44;2.20;;;1.30;;
61590;SDS011;57639;52.410;-1.966;2023-04-25T16:09:50;2.45;;;1.50;;
61590;SDS011;57639;52.410;-1.966;2023-04-25T16:13:01;2.33;;;1.20;;
61590;SDS011;57639;52.410;-1.966;2023-04-25T16:16:09;2.15;;;1.40;;
61590;SDS011;57639;52.410;-1.966;2023-04-25T16:19:16;2.92;;;1.33;;
61590;SDS011;57639;52.410;-1.966;2023-04-25T16:22:22;2.65;;;1.10;;
61590;SDS011;57639;52.410;-1.966;2023-04-25T16:25:28;2.10;;;1.42;;
61590;SDS011;57639;52.410;-1.966;2023-04-25T16:28:37;2.05;;;1.40;;
61590;SDS011;57639;52.410;-1.966;2023-04-25T16:31:44;2.50;;;1.40;;
61590;SDS011;57639;52.410;-1.966;2023-04-25T16:34:50;2.75;;;1.45;;
61590;SDS011;57639;52.410;-1.966;2023-04-25T16:37:56;2.35;;;1.60;;
61590;SDS011;57639;52.410;-1.966;2023-04-25T16:41:03;1.90;;;1.55;;
61590;SDS011;57639;52.410;-1.966;2023-04-25T16:44:12;5.00;;;1.52;;
61590;SDS011;57639;52.410;-1.966;2023-04-25T16:47:20;2.55;;;1.48;;
61590;SDS011;57639;52.410;-1.966;2023-04-25T16:50:29;1.67;;;1.27;;
61590;SDS011;57639;52.410;-1.966;2023-04-25T16:53:36;3.40;;;1.65;;
61590;SDS011;57639;52.410;-1.966;2023-04-25T16:56:43;2.15;;;1.40;;
61590;SDS011;57639;52.410;-1.966;2023-04-25T16:59:52;1.90;;;1.40;;
61590;SDS011;57639;52.410;-1.966;2023-04-25T17:02:58;2.30;;;1.50;;
61590;SDS011;57639;52.410;-1.966;2023-04-25T17:06:04;2.17;;;1.20;;
61590;SDS011;57639;52.410;-1.966;2023-04-25T17:09:11;2.58;;;1.30;;
61590;SDS011;57639;52.410;-1.966;2023-04-25T17:12:17;1.77;;;1.33;;
61590;SDS011;57639;52.410;-1.966;2023-04-25T17:15:26;3.22;;;1.45;;
61590;SDS011;57639;52.410;-1.966;2023-04-25T17:18:33;2.00;;;1.40;;
61590;SDS011;57639;52.410;-1.966;2023-04-25T17:21:45;1.80;;;1.27;;
61590;SDS011;57639;52.410;-1.966;2023-04-25T17:24:52;4.13;;;1.38;;
61590;SDS011;57639;52.410;-1.966;2023-04-25T17:27:58;2.47;;;1.40;;
61590;SDS011;57639;52.410;-1.966;2023-04-25T17:31:08;2.30;;;1.30;;
61590;SDS011;57639;52.410;-1.966;2023-04-25T17:34:14;2.58;;;1.40;;
61590;SDS011;57639;52.410;-1.966;2023-04-25T17:37:20;3.72;;;1.27;;
61590;SDS011;57639;52.410;-1.966;2023-04-25T17:40:29;2.45;;;1.30;;
61590;SDS011;57639;52.410;-1.966;2023-04-25T17:43:36;2.55;;;1.20;;
61590;SDS011;57639;52.410;-1.966;2023-04-25T17:46:45;2.78;;;1.42;;
61590;SDS011;57639;52.410;-1.966;2023-04-25T17:49:52;2.40;;;1.17;;
61590;SDS011;57639;52.410;-1.966;2023-04-25T17:52:59;2.53;;;1.65;;
61590;SDS011;57639;52.410;-1.966;2023-04-25T17:56:06;1.83;;;1.27;;
61590;SDS011;57639;52.410;-1.966;2023-04-25T17:59:12;3.10;;;1.80;;
61590;SDS011;57639;52.410;-1.966;2023-04-25T18:02:22;3.58;;;1.38;;
61590;SDS011;57639;52.410;-1.966;2023-04-25T18:05:28;1.95;;;1.42;;
61590;SDS011;57639;52.410;-1.966;2023-04-25T18:08:35;2.60;;;1.50;;
61590;SDS011;57639;52.410;-1.966;2023-04-25T18:11:43;2.83;;;1.60;;
61590;SDS011;57639;52.410;-1.966;2023-04-25T18:14:49;3.88;;;2.30;;
61590;SDS011;57639;52.410;-1.966;2023-04-25T18:17:59;4.45;;;2.70;;
61590;SDS011;57639;52.410;-1.966;2023-04-25T18:21:12;3.83;;;3.05;;
61590;SDS011;57639;52.410;-1.966;2023-04-25T18:24:19;5.35;;;3.90;;
61590;SDS011;57639;52.410;-1.966;2023-04-25T18:27:28;6.13;;;4.10;;
61590;SDS011;57639;52.410;-1.966;2023-04-25T18:30:34;6.68;;;4.45;;
61590;SDS011;57639;52.410;-1.966;2023-04-25T18:33:43;5.90;;;4.50;;
61590;SDS011;57639;52.410;-1.966;2023-04-25T18:36:50;6.90;;;4.57;;
61590;SDS011;57639;52.410;-1.966;2023-04-25T18:39:57;6.80;;;4.47;;
61590;SDS011;57639;52.410;-1.966;2023-04-25T18:43:07;6.13;;;4.53;;
61590;SDS011;57639;52.410;-1.966;2023-04-25T18:46:13;4.97;;;4.05;;
61590;SDS011;57639;52.410;-1.966;2023-04-25T18:49:26;4.68;;;3.45;;
61590;SDS011;57639;52.410;-1.966;2023-04-25T18:52:33;4.63;;;3.63;;
61590;SDS011;57639;52.410;-1.966;2023-04-25T18:55:55;4.75;;;3.60;;
61590;SDS011;57639;52.410;-1.966;2023-04-25T18:59:18;4.57;;;3.45;;
61590;SDS011;57639;52.410;-1.966;2023-04-25T19:02:41;4.55;;;3.28;;
61590;SDS011;57639;52.410;-1.966;2023-04-25T19:06:08;4.93;;;3.15;;
61590;SDS011;57639;52.410;-1.966;2023-04-25T19:09:30;4.40;;;3.20;;
61590;SDS011;57639;52.410;-1.966;2023-04-25T19:12:54;4.43;;;2.95;;
61590;SDS011;57639;52.410;-1.966;2023-04-25T19:16:16;3.30;;;2.65;;
61590;SDS011;57639;52.410;-1.966;2023-04-25T19:19:39;4.65;;;2.88;;